Ana Sayfa
METAR-TAF:

METAR-TAF

Havaalanları :

Şam Havalimanı

Şam, Suriye

Enlem: 33-25N, Boylam: 036-31E, yükseklik: 608 m

Güncel hava durumu gözlemi

Rapor saat 14:00 UTC de 46 dakika önce yapıldı.
Rüzgar doğudan 10 kt
Sıcaklık 11°C
Nem 20%
Basınç 1022 hPa
Görüş mesafesi 10 km veya daha fazla
1500 m altında bulut yok ve kümülonimbus yok

METAR: OSDI 231400Z 09010KT CAVOK 11/M11 Q1022

Saat: 16:46 (14:46 UTC)

Tahmin

Ayın 23'si saat 12 UTC'den ayın 24'si saat 18 UTC'ye kadar geçerli Tahmin
Rüzgar doğu/kuzeydoğudan 10 kt
Görüş mesafesi 10 km veya daha fazla
3000 ft yükseklikte az bulutlu

TAF: OSDI 2312/2418 06010KT 9999 FEW030

4.000'den fazla havaalanı için hava durumu gözlemleri ve tahminleri (METAR ve TAF raporları).

Kullanılabilir istasyonlar harita üzerinde sarı ve kırmızı noktalarla gösterilir.

İstasyonun adını görmek için fareyi noktanın üzerinde gezdirin.

Sonrasında hava gözlem ve tahminlerini görmek için tıklayın.

Haritayı değiştirmek için: yaklaştırmak için siyah artı işaretli yeşil düğmeye ve uzaklaştırmak için de eksi işaretli düğmeye hızla tıklayın; bitişik haritalar için yeşil okları kullanın.


METAR-TAF: